Time;durP1;ratioP1;P1;durP2;ratioP2;P2;SDS_P1;SDS_P2;PMS_P1;PMS_P2;Temp;Humidity;BMP_temperature;BMP_pressure;BME280_temperature;BME280_humidity;BME280_pressure;Samples;Min_cycle;Max_cycle;Signal;HPM_P1;HPM_P2
2022/12/21 00:01:43;;;;;;;2.03;1.80;;;20.60;52.20;;;;;;6085812;23;20015;-69
2022/12/21 00:04:09;;;;;;;2.40;2.03;;;20.60;52.10;;;;;;6062103;23;20027;-68
2022/12/21 00:06:37;;;;;;;2.38;2.17;;;20.60;52.10;;;;;;6084772;23;20052;-67
2022/12/21 00:09:06;;;;;;;3.25;2.45;;;20.60;52.20;;;;;;6086282;23;20070;-69
2022/12/21 00:11:33;;;;;;;2.17;2.08;;;20.60;52.10;;;;;;6085328;23;20347;-69
2022/12/21 00:14:01;;;;;;;2.83;2.15;;;20.60;52.80;;;;;;6086006;23;20025;-68
2022/12/21 00:16:30;;;;;;;3.00;1.90;;;20.60;52.20;;;;;;6086244;23;20387;-69
2022/12/21 00:18:57;;;;;;;2.70;2.30;;;20.60;52.10;;;;;;6085053;23;20367;-69
2022/12/21 00:21:25;;;;;;;2.40;2.20;;;20.50;52.00;;;;;;6061329;23;20037;-69
2022/12/21 00:23:53;;;;;;;3.30;2.50;;;20.50;52.00;;;;;;6085074;23;20101;-71
2022/12/21 00:26:21;;;;;;;3.22;2.67;;;20.50;52.00;;;;;;6086061;23;20093;-69
2022/12/21 00:28:49;;;;;;;2.35;2.15;;;20.50;52.00;;;;;;6061439;23;20113;-69
2022/12/21 00:31:20;;;;;;;3.00;2.67;;;20.50;51.90;;;;;;6085360;23;20341;-70
2022/12/21 00:33:47;;;;;;;2.70;2.50;;;20.50;51.90;;;;;;6060264;23;20332;-67
2022/12/21 00:36:18;;;;;;;2.55;2.35;;;20.50;51.90;;;;;;6083508;23;20061;-69
2022/12/21 00:38:44;;;;;;;2.85;2.58;;;20.50;52.60;;;;;;6085242;23;20407;-69
2022/12/21 00:41:15;;;;;;;2.60;2.38;;;20.50;51.90;;;;;;6085233;23;20025;-69
2022/12/21 00:43:42;;;;;;;3.65;2.75;;;20.50;51.80;;;;;;6086144;23;20090;-69
2022/12/21 00:46:15;;;;;;;2.97;2.50;;;20.40;51.80;;;;;;6085389;23;20015;-69
2022/12/21 00:48:40;;;;;;;3.10;2.58;;;20.50;51.80;;;;;;6061855;23;20026;-69
2022/12/21 00:51:13;;;;;;;3.30;2.97;;;20.40;51.90;;;;;;6085057;23;20379;-68
2022/12/21 00:53:39;;;;;;;3.92;2.60;;;20.40;51.80;;;;;;6062628;23;20112;-69
2022/12/21 00:56:06;;;;;;;3.22;2.90;;;20.40;51.90;;;;;;6086071;23;20029;-70
2022/12/21 00:58:33;;;;;;;3.45;2.83;;;20.40;51.70;;;;;;6062313;23;20117;-68
2022/12/21 01:01:05;;;;;;;3.42;2.85;;;20.40;51.80;;;;;;6084842;23;20024;-69
2022/12/21 01:03:31;;;;;;;3.08;2.78;;;20.40;51.80;;;;;;6086863;23;20028;-68
2022/12/21 01:05:56;;;;;;;3.97;3.10;;;20.40;51.70;;;;;;6085092;23;20482;-69
2022/12/21 01:08:24;;;;;;;3.45;3.15;;;20.30;51.60;;;;;;6085626;23;20447;-69
2022/12/21 01:10:55;;;;;;;3.00;2.70;;;20.30;51.60;;;;;;6062041;23;20021;-69
2022/12/21 01:13:21;;;;;;;4.40;3.38;;;20.30;51.60;;;;;;6062092;23;20050;-68
2022/12/21 01:15:47;;;;;;;4.00;3.50;;;20.30;51.60;;;;;;6059731;23;20256;-68
2022/12/21 01:18:14;;;;;;;4.10;3.67;;;20.30;51.60;;;;;;6085036;23;20022;-69
2022/12/21 01:20:43;;;;;;;3.63;3.20;;;20.30;51.60;;;;;;6061075;23;20061;-68
2022/12/21 01:23:09;;;;;;;3.67;3.03;;;20.30;51.60;;;;;;6085579;23;20033;-68
2022/12/21 01:25:35;;;;;;;4.03;3.13;;;20.30;51.50;;;;;;6061036;23;20022;-69
2022/12/21 01:28:00;;;;;;;4.00;3.55;;;20.30;51.60;;;;;;6085228;23;20065;-69
2022/12/21 01:30:26;;;;;;;3.83;2.90;;;20.30;51.50;;;;;;6061191;23;20410;-68
2022/12/21 01:32:52;;;;;;;4.13;3.05;;;20.30;51.50;;;;;;6061335;23;20475;-68
2022/12/21 01:35:19;;;;;;;3.38;3.08;;;20.30;51.50;;;;;;6086000;23;20101;-69
2022/12/21 01:37:44;;;;;;;3.42;3.13;;;20.30;51.50;;;;;;6085670;23;20022;-69
2022/12/21 01:40:11;;;;;;;4.03;3.58;;;20.20;51.40;;;;;;6062232;23;20074;-69
2022/12/21 01:42:37;;;;;;;3.72;3.42;;;20.20;51.50;;;;;;6060674;23;20022;-68
2022/12/21 01:45:12;;;;;;;4.10;3.25;;;20.20;51.50;;;;;;6084850;23;20069;-69
2022/12/21 01:47:44;;;;;;;4.47;3.55;;;20.20;51.50;;;;;;6060676;23;20101;-68
2022/12/21 01:50:26;;;;;;;4.15;3.42;;;20.20;51.60;;;;;;6061993;23;20089;-68
2022/12/21 01:52:54;;;;;;;4.40;3.75;;;20.20;51.50;;;;;;6085169;23;20449;-69
2022/12/21 01:55:20;;;;;;;4.00;3.33;;;20.20;51.50;;;;;;6084756;23;20403;-69
2022/12/21 01:57:46;;;;;;;4.85;3.40;;;20.10;51.50;;;;;;6060355;23;20057;-68
2022/12/21 02:00:13;;;;;;;4.05;3.25;;;20.20;51.40;;;;;;6061343;23;20018;-63
2022/12/21 02:02:50;;;;;;;3.17;2.90;;;20.10;51.40;;;;;;6084690;23;20023;-66
2022/12/21 02:05:58;;;;;;;3.88;3.47;;;20.10;51.40;;;;;;6085192;23;20016;-67
2022/12/21 02:08:24;;;;;;;3.72;3.42;;;20.10;51.30;;;;;;5974277;23;20016;-67
2022/12/21 02:10:51;;;;;;;4.35;3.53;;;20.10;51.40;;;;;;5974224;23;20027;-67
2022/12/21 02:13:17;;;;;;;5.13;4.03;;;20.10;51.40;;;;;;6026373;23;20053;-67
2022/12/21 02:15:59;;;;;;;3.65;3.30;;;20.10;51.40;;;;;;6085057;23;20014;-67
2022/12/21 02:18:53;;;;;;;4.20;3.60;;;20.10;51.40;;;;;;6061222;23;20521;-68
2022/12/21 02:21:23;;;;;;;3.72;3.35;;;20.10;51.40;;;;;;6060655;23;20053;-67
2022/12/21 02:24:01;;;;;;;3.92;3.40;;;20.10;51.50;;;;;;6061025;23;20446;-68
2022/12/21 02:26:48;;;;;;;4.10;3.42;;;20.00;51.40;;;;;;6085154;23;20025;-68
2022/12/21 02:29:32;;;;;;;3.75;3.38;;;20.00;51.40;;;;;;6084919;23;20019;-68
2022/12/21 02:32:21;;;;;;;4.35;3.25;;;20.00;51.40;;;;;;6083406;23;20408;-68
2022/12/21 02:35:01;;;;;;;3.67;3.38;;;20.00;51.40;;;;;;6085721;23;20034;-67
2022/12/21 02:38:21;;;;;;;3.97;3.47;;;20.00;51.50;;;;;;6084080;23;20038;-67
2022/12/21 02:40:52;;;;;;;4.90;3.78;;;20.00;51.30;;;;;;5974251;23;20460;-67
2022/12/21 02:46:42;;;;;;;4.05;3.30;;;20.00;51.50;;;;;;6083314;23;20121;-67
2022/12/21 02:49:20;;;;;;;4.10;3.65;;;19.90;51.40;;;;;;6060960;23;20082;-67
2022/12/21 02:52:07;;;;;;;3.53;3.10;;;19.90;51.30;;;;;;6085881;23;20026;-67
2022/12/21 02:54:40;;;;;;;3.70;3.40;;;19.90;51.30;;;;;;6086635;23;20537;-67
2022/12/21 02:57:06;;;;;;;3.70;3.30;;;19.90;51.30;;;;;;6060746;23;20548;-67
2022/12/21 02:59:35;;;;;;;4.22;3.83;;;19.90;51.20;;;;;;6062306;23;20101;-68
2022/12/21 03:02:29;;;;;;;4.18;3.78;;;19.90;51.20;;;;;;6061712;23;20022;-68
2022/12/21 03:05:23;;;;;;;4.00;3.60;;;19.90;51.20;;;;;;6062270;23;20026;-67
2022/12/21 03:08:09;;;;;;;4.10;3.50;;;19.90;51.20;;;;;;6085455;23;20018;-68
2022/12/21 03:10:59;;;;;;;4.22;3.83;;;19.90;51.20;;;;;;6087526;23;20019;-69
2022/12/21 03:13:36;;;;;;;4.30;3.90;;;19.90;51.20;;;;;;6062631;23;20026;-68
2022/12/21 03:16:14;;;;;;;3.78;3.45;;;19.90;51.20;;;;;;6084780;23;20018;-68
2022/12/21 03:19:03;;;;;;;3.97;3.30;;;19.80;51.20;;;;;;6085148;23;20023;-68
2022/12/21 03:21:39;;;;;;;3.55;3.25;;;19.90;51.20;;;;;;6084062;23;20410;-68
2022/12/21 03:24:22;;;;;;;3.53;2.90;;;19.80;51.10;;;;;;6061561;23;20431;-67
2022/12/21 03:27:23;;;;;;;2.97;2.78;;;19.80;51.10;;;;;;6085758;23;20018;-68
2022/12/21 03:29:55;;;;;;;4.15;3.72;;;19.80;51.00;;;;;;6024460;23;20041;-67
2022/12/21 03:32:48;;;;;;;3.53;3.22;;;19.80;51.10;;;;;;6062040;23;20025;-66
2022/12/21 03:35:33;;;;;;;3.97;3.58;;;19.80;51.00;;;;;;6072041;23;20018;-67
2022/12/21 03:38:03;;;;;;;4.05;3.75;;;19.80;51.10;;;;;;6084931;23;20014;-67
2022/12/21 03:40:34;;;;;;;3.92;3.60;;;19.80;51.10;;;;;;6085585;23;20139;-67
2022/12/21 03:43:05;;;;;;;3.70;3.40;;;19.80;51.10;;;;;;6085486;23;20018;-67
2022/12/21 03:45:36;;;;;;;4.00;3.70;;;19.80;51.00;;;;;;6061647;23;20025;-68
2022/12/21 03:48:27;;;;;;;4.72;4.20;;;19.80;51.00;;;;;;6086454;23;20022;-67
2022/12/21 03:50:55;;;;;;;4.10;3.70;;;19.80;51.00;;;;;;6087708;23;20025;-67
2022/12/21 03:53:30;;;;;;;4.25;3.85;;;19.70;51.00;;;;;;6062160;23;20019;-67
2022/12/21 03:56:00;;;;;;;4.35;3.95;;;19.70;51.00;;;;;;6084464;23;20018;-67
2022/12/21 03:58:27;;;;;;;3.55;3.22;;;19.70;51.00;;;;;;6086707;23;20022;-67
2022/12/21 04:01:25;;;;;;;4.50;3.55;;;19.70;51.00;;;;;;6085490;23;20018;-68
2022/12/21 04:03:56;;;;;;;4.13;3.72;;;19.80;51.10;;;;;;6083656;23;20350;-68
2022/12/21 04:06:25;;;;;;;4.15;3.72;;;19.70;51.00;;;;;;6084551;23;20021;-68
2022/12/21 04:08:51;;;;;;;4.47;4.07;;;19.70;51.00;;;;;;6084987;23;20017;-68
2022/12/21 04:14:02;;;;;;;3.78;3.47;;;19.70;51.00;;;;;;6085555;23;20022;-68
2022/12/21 04:16:27;;;;;;;3.75;3.45;;;19.70;50.90;;;;;;6084906;23;20034;-68
2022/12/21 04:21:38;;;;;;;4.00;3.70;;;19.70;51.00;;;;;;6083895;23;20034;-67
2022/12/21 04:29:32;;;;;;;4.05;3.65;;;19.70;51.00;;;;;;6085353;23;20466;-67
2022/12/21 04:31:57;;;;;;;2.97;2.70;;;19.60;51.00;;;;;;6060529;23;20022;-68
2022/12/21 04:34:24;;;;;;;3.42;3.13;;;19.60;50.90;;;;;;6086034;23;20022;-68
2022/12/21 04:39:35;;;;;;;3.30;3.00;;;19.60;50.90;;;;;;6085896;23;20022;-68
2022/12/21 04:42:00;;;;;;;3.60;3.30;;;19.60;50.90;;;;;;6060785;23;20020;-67
2022/12/21 04:44:26;;;;;;;2.90;2.70;;;19.60;50.90;;;;;;6061507;23;20069;-67
2022/12/21 04:46:52;;;;;;;3.40;3.10;;;19.60;50.90;;;;;;6061028;23;20041;-67
2022/12/21 04:49:17;;;;;;;3.58;3.20;;;19.60;50.90;;;;;;6060748;23;20025;-68
2022/12/21 04:51:43;;;;;;;3.83;3.50;;;19.60;50.90;;;;;;6084592;23;20324;-66
2022/12/21 04:54:09;;;;;;;3.30;3.00;;;19.60;50.90;;;;;;6061732;23;20049;-68
2022/12/21 04:56:35;;;;;;;3.63;3.33;;;19.60;50.90;;;;;;6061127;23;20474;-67
2022/12/21 04:59:00;;;;;;;3.40;3.10;;;19.60;50.90;;;;;;6061697;23;20089;-67
2022/12/21 05:01:26;;;;;;;3.88;3.30;;;19.60;50.90;;;;;;6060968;23;20018;-67
2022/12/21 05:03:55;;;;;;;3.38;3.08;;;19.60;50.80;;;;;;6085642;23;20451;-68
2022/12/21 05:06:21;;;;;;;3.30;3.00;;;19.60;50.90;;;;;;6060959;23;20025;-68
2022/12/21 05:08:47;;;;;;;3.67;3.20;;;19.50;50.80;;;;;;6086077;23;20014;-67
2022/12/21 05:11:22;;;;;;;3.53;3.22;;;19.60;50.80;;;;;;6084441;23;20018;-67
2022/12/21 05:13:48;;;;;;;2.80;2.60;;;19.50;50.70;;;;;;6062338;23;20025;-68
2022/12/21 05:16:16;;;;;;;3.35;3.00;;;19.50;50.70;;;;;;6060088;23;20015;-68
2022/12/21 05:18:43;;;;;;;3.00;2.70;;;19.60;50.90;;;;;;6085014;23;20018;-68
2022/12/21 05:21:09;;;;;;;3.30;3.00;;;19.60;50.80;;;;;;6085510;23;20018;-68
2022/12/21 05:23:35;;;;;;;3.42;3.13;;;19.60;50.90;;;;;;6085081;23;20677;-68
2022/12/21 05:26:02;;;;;;;2.53;2.33;;;19.50;50.80;;;;;;6084317;23;20395;-70
2022/12/21 05:28:28;;;;;;;3.03;2.83;;;19.50;50.80;;;;;;6084769;23;20025;-67
2022/12/21 05:30:54;;;;;;;3.40;3.10;;;19.50;50.70;;;;;;6084677;23;20017;-68
2022/12/21 05:33:20;;;;;;;3.65;2.95;;;19.50;50.80;;;;;;6061872;23;20018;-68
2022/12/21 05:35:45;;;;;;;3.85;3.42;;;19.50;50.70;;;;;;6061212;23;20062;-67
2022/12/21 05:38:11;;;;;;;3.72;3.42;;;19.50;50.70;;;;;;6062255;23;20060;-68
2022/12/21 05:40:37;;;;;;;3.30;3.00;;;19.50;50.70;;;;;;6061598;23;20334;-68
2022/12/21 05:43:04;;;;;;;3.17;2.90;;;19.50;50.80;;;;;;6084941;23;20511;-68
2022/12/21 05:45:30;;;;;;;3.47;3.20;;;19.40;50.80;;;;;;6060740;23;20018;-67
2022/12/21 05:47:56;;;;;;;3.00;2.78;;;19.40;50.70;;;;;;6084848;23;20549;-67
2022/12/21 05:50:23;;;;;;;3.13;2.92;;;19.50;50.70;;;;;;6085161;23;20014;-68
2022/12/21 05:52:48;;;;;;;3.50;3.20;;;19.40;50.70;;;;;;6084781;23;20018;-68
2022/12/21 05:55:15;;;;;;;3.15;2.85;;;19.40;50.70;;;;;;6085570;23;20022;-68
2022/12/21 05:57:41;;;;;;;4.00;3.35;;;19.40;50.70;;;;;;6084770;23;20113;-68
2022/12/21 06:00:08;;;;;;;3.40;3.10;;;19.40;50.70;;;;;;6084837;23;20351;-68
2022/12/21 06:02:34;;;;;;;3.85;3.45;;;19.40;50.70;;;;;;6085134;23;20025;-68
2022/12/21 06:05:00;;;;;;;4.30;3.78;;;19.40;50.70;;;;;;6084949;23;20018;-67
2022/12/21 06:07:26;;;;;;;4.45;3.60;;;19.40;50.70;;;;;;6061065;23;20454;-67
2022/12/21 06:09:51;;;;;;;4.32;3.45;;;19.40;50.60;;;;;;6084433;23;20014;-68
2022/12/21 06:12:17;;;;;;;3.50;3.20;;;19.40;50.70;;;;;;6084532;23;20290;-68
2022/12/21 06:14:42;;;;;;;4.10;3.70;;;19.40;50.70;;;;;;6085069;23;20022;-67
2022/12/21 06:17:08;;;;;;;4.20;3.47;;;19.40;50.70;;;;;;6084762;23;20018;-67
2022/12/21 06:19:34;;;;;;;3.72;3.42;;;19.40;50.60;;;;;;6085870;23;20019;-68
2022/12/21 06:22:00;;;;;;;4.53;3.63;;;19.40;50.70;;;;;;6060797;23;20459;-68
2022/12/21 06:24:26;;;;;;;3.22;2.92;;;19.40;50.70;;;;;;6084707;23;20014;-68
2022/12/21 06:26:51;;;;;;;3.78;3.47;;;19.40;50.70;;;;;;6060639;23;20018;-68
2022/12/21 06:29:17;;;;;;;4.55;4.15;;;19.30;50.60;;;;;;6086161;23;20077;-68
2022/12/21 06:31:43;;;;;;;9.20;3.63;;;19.30;50.50;;;;;;6059798;23;20018;-67
2022/12/21 06:34:13;;;;;;;4.60;3.25;;;19.30;50.50;;;;;;6085207;23;20469;-67
2022/12/21 06:36:38;;;;;;;5.32;3.30;;;19.40;50.60;;;;;;6083317;23;20026;-67
2022/12/21 06:39:05;;;;;;;5.07;3.50;;;19.90;50.00;;;;;;6055854;23;20033;-67
2022/12/21 06:41:30;;;;;;;4.13;2.60;;;20.60;48.80;;;;;;6083169;23;20464;-67
2022/12/21 06:43:56;;;;;;;4.20;3.38;;;21.20;47.40;;;;;;6059608;23;20025;-67
2022/12/21 06:46:22;;;;;;;5.38;2.58;;;21.80;46.10;;;;;;6084717;23;20053;-68
2022/12/21 06:48:47;;;;;;;4.50;2.72;;;22.30;45.30;;;;;;6082613;23;20018;-69
2022/12/21 06:51:32;;;;;;;5.80;2.90;;;22.50;44.90;;;;;;6083878;23;20080;-67
2022/12/21 06:53:58;;;;;;;4.13;2.58;;;22.40;45.00;;;;;;6059845;23;20026;-66
2022/12/21 06:56:57;;;;;;;3.25;2.22;;;22.30;45.30;;;;;;6065375;23;20026;-67
2022/12/21 06:59:23;;;;;;;10.30;2.83;;;22.30;45.70;;;;;;6052892;23;20029;-67
2022/12/21 07:01:49;;;;;;;4.78;2.83;;;22.10;46.00;;;;;;6084419;23;20022;-67
2022/12/21 07:04:14;;;;;;;4.07;2.90;;;22.10;46.30;;;;;;6084481;23;20475;-67
2022/12/21 07:06:41;;;;;;;4.07;2.80;;;21.90;46.50;;;;;;6059918;23;20040;-68
2022/12/21 07:09:07;;;;;;;5.18;3.25;;;21.80;46.90;;;;;;6060237;23;20010;-68
2022/12/21 07:11:32;;;;;;;4.20;2.95;;;21.60;47.40;;;;;;6083957;23;20380;-68
2022/12/21 07:14:00;;;;;;;3.92;2.83;;;21.50;47.70;;;;;;6084348;23;20308;-68
2022/12/21 07:16:26;;;;;;;4.10;3.20;;;21.50;47.90;;;;;;6059236;23;20097;-68
2022/12/21 07:18:53;;;;;;;6.18;3.63;;;21.50;48.50;;;;;;6062153;23;20322;-68
2022/12/21 07:21:20;;;;;;;3.30;3.00;;;21.60;47.90;;;;;;6086389;23;20306;-69
2022/12/21 07:23:46;;;;;;;8.65;2.95;;;21.70;47.70;;;;;;6062769;23;20026;-67
2022/12/21 07:26:24;;;;;;;3.55;3.22;;;21.70;47.50;;;;;;6084697;23;20014;-69
2022/12/21 07:28:51;;;;;;;4.68;2.80;;;21.80;47.50;;;;;;6086598;23;20015;-67
2022/12/21 07:31:22;;;;;;;4.65;3.15;;;21.80;47.40;;;;;;6086529;23;20018;-66
2022/12/21 07:33:48;;;;;;;5.55;2.92;;;21.90;47.30;;;;;;6085685;23;20029;-62
2022/12/21 07:36:15;;;;;;;4.45;2.70;;;21.90;47.30;;;;;;6085506;23;20026;-65
2022/12/21 07:38:41;;;;;;;6.05;2.90;;;21.90;47.20;;;;;;6044147;23;20121;-69
2022/12/21 07:41:25;;;;;;;4.47;3.00;;;21.90;47.20;;;;;;6082876;23;20025;-66
2022/12/21 07:44:09;;;;;;;4.00;2.95;;;21.90;47.20;;;;;;6085421;23;20025;-68
2022/12/21 07:46:54;;;;;;;4.50;2.78;;;22.00;47.20;;;;;;6081857;23;20044;-65
2022/12/21 07:49:19;;;;;;;5.82;3.05;;;22.00;47.10;;;;;;6060315;23;20019;-66
2022/12/21 07:51:45;;;;;;;2.92;2.63;;;22.00;47.00;;;;;;6059726;23;20026;-62
2022/12/21 07:54:11;;;;;;;6.75;2.80;;;22.00;46.90;;;;;;6084965;23;20025;-64
2022/12/21 07:56:36;;;;;;;4.30;3.03;;;22.10;46.70;;;;;;6060988;23;20363;-65
2022/12/21 07:59:02;;;;;;;5.97;2.90;;;22.10;46.70;;;;;;6061236;23;20362;-68
2022/12/21 08:01:28;;;;;;;4.57;3.35;;;22.10;46.60;;;;;;6061939;23;20447;-68
2022/12/21 08:03:56;;;;;;;3.20;2.83;;;22.10;46.50;;;;;;6059112;23;20106;-68
2022/12/21 08:06:21;;;;;;;4.80;3.38;;;22.10;46.40;;;;;;6060238;23;20014;-67
2022/12/21 08:08:47;;;;;;;4.70;2.67;;;22.10;46.40;;;;;;6059649;23;20368;-68
2022/12/21 08:11:16;;;;;;;3.92;2.92;;;22.10;46.50;;;;;;6060101;23;20097;-68
2022/12/21 08:13:43;;;;;;;6.75;3.28;;;22.10;46.70;;;;;;6084127;23;20059;-68
2022/12/21 08:16:11;;;;;;;4.90;3.28;;;22.10;46.60;;;;;;6082735;23;20032;-68
2022/12/21 08:18:37;;;;;;;5.63;2.95;;;22.10;46.70;;;;;;6083987;23;20101;-68
2022/12/21 08:21:03;;;;;;;5.15;3.13;;;22.10;46.70;;;;;;6060366;23;20014;-68
2022/12/21 08:23:29;;;;;;;6.18;3.35;;;22.20;46.80;;;;;;6083889;23;20489;-68
2022/12/21 08:26:09;;;;;;;7.78;2.88;;;22.20;46.90;;;;;;6060813;23;20025;-68
2022/12/21 08:28:35;;;;;;;6.82;3.15;;;22.20;46.90;;;;;;6060977;23;20097;-70
2022/12/21 08:31:07;;;;;;;13.77;4.00;;;22.20;46.90;;;;;;6057829;23;20018;-68
2022/12/21 08:33:32;;;;;;;5.88;3.42;;;22.20;47.00;;;;;;6058658;23;20085;-68
2022/12/21 08:35:58;;;;;;;5.88;3.80;;;22.20;47.10;;;;;;6084026;23;20035;-69
2022/12/21 08:38:24;;;;;;;7.80;3.83;;;22.20;47.20;;;;;;6060462;23;20109;-68
2022/12/21 08:40:51;;;;;;;8.18;4.07;;;22.20;47.40;;;;;;6084134;23;20018;-67
2022/12/21 08:43:17;;;;;;;8.65;5.05;;;22.20;47.40;;;;;;6060075;23;20024;-67
2022/12/21 08:45:44;;;;;;;11.65;7.93;;;22.10;47.40;;;;;;6080559;23;20018;-65
2022/12/21 08:48:10;;;;;;;18.88;9.65;;;22.20;47.80;;;;;;6083020;23;20831;-66
2022/12/21 08:50:36;;;;;;;16.00;10.18;;;22.20;48.30;;;;;;6061094;23;20030;-67
2022/12/21 08:53:02;;;;;;;12.73;9.18;;;22.20;48.50;;;;;;6082652;23;20019;-67
2022/12/21 08:55:28;;;;;;;17.27;9.68;;;22.20;49.00;;;;;;6082378;23;20022;-67
2022/12/21 08:57:54;;;;;;;17.38;8.75;;;22.30;49.20;;;;;;6084568;23;20431;-67
2022/12/21 09:00:20;;;;;;;13.05;8.75;;;22.30;49.40;;;;;;6060826;23;20025;-67
2022/12/21 09:02:46;;;;;;;12.30;8.23;;;22.30;49.60;;;;;;6061547;23;20041;-67
2022/12/21 09:05:12;;;;;;;13.60;8.98;;;22.30;49.60;;;;;;6062418;23;20014;-69
2022/12/21 09:07:37;;;;;;;13.40;9.07;;;22.30;49.70;;;;;;6085316;23;20018;-68
2022/12/21 09:10:03;;;;;;;12.05;7.78;;;22.30;49.80;;;;;;6063224;23;20347;-70
2022/12/21 09:12:29;;;;;;;14.48;7.90;;;22.30;49.80;;;;;;6061313;23;20023;-68
2022/12/21 09:14:55;;;;;;;10.38;8.18;;;22.30;50.00;;;;;;6084995;23;20014;-67
2022/12/21 09:17:21;;;;;;;13.48;7.85;;;22.30;50.20;;;;;;6084115;23;20725;-68
2022/12/21 09:19:46;;;;;;;11.50;8.55;;;22.30;50.20;;;;;;6058190;23;20434;-66
2022/12/21 09:22:12;;;;;;;11.60;8.85;;;22.30;50.10;;;;;;6083260;23;20089;-66
2022/12/21 09:24:38;;;;;;;11.38;8.15;;;22.40;49.90;;;;;;6084904;23;20074;-65
2022/12/21 09:27:03;;;;;;;10.57;8.07;;;22.40;49.40;;;;;;6085254;23;20022;-65
2022/12/21 09:29:29;;;;;;;13.52;7.95;;;22.40;49.10;;;;;;6085391;23;20029;-65
2022/12/21 09:31:55;;;;;;;11.23;7.53;;;22.40;48.80;;;;;;6080551;23;20014;-66
2022/12/21 09:34:21;;;;;;;9.55;7.70;;;22.40;48.60;;;;;;6080013;23;20064;-67
2022/12/21 09:36:46;;;;;;;13.98;7.57;;;22.40;48.30;;;;;;6059217;23;20443;-66
2022/12/21 09:39:12;;;;;;;10.57;7.05;;;22.50;48.10;;;;;;6058301;23;20029;-66
2022/12/21 09:41:50;;;;;;;11.80;7.30;;;22.50;47.90;;;;;;6079571;23;20134;-65
2022/12/21 09:44:30;;;;;;;20.50;18.13;;;22.40;47.60;;;;;;6081599;23;20225;-66
2022/12/21 09:47:00;;;;;;;32.77;29.30;;;22.50;47.60;;;;;;6080671;23;20010;-67
2022/12/21 09:49:51;;;;;;;33.42;28.67;;;22.50;47.70;;;;;;6084427;23;20278;-68
2022/12/21 09:52:26;;;;;;;30.45;26.08;;;22.50;47.60;;;;;;6083027;23;20093;-69
2022/12/21 09:55:06;;;;;;;35.05;31.35;;;22.40;47.40;;;;;;6059022;23;20029;-69
2022/12/21 09:57:35;;;;;;;30.15;26.38;;;22.50;47.10;;;;;;6057422;23;20033;-68
2022/12/21 10:00:14;;;;;;;27.23;24.23;;;22.50;47.10;;;;;;6055968;23;20018;-68
2022/12/21 10:02:58;;;;;;;26.55;23.73;;;22.50;46.90;;;;;;6078502;23;20335;-67
2022/12/21 10:05:44;;;;;;;24.83;21.70;;;22.50;46.70;;;;;;6059763;23;20018;-68
2022/12/21 10:08:23;;;;;;;22.67;20.33;;;22.50;46.50;;;;;;6084966;23;20014;-68
2022/12/21 10:11:12;;;;;;;20.40;18.23;;;22.50;46.40;;;;;;6084411;23;20022;-67
2022/12/21 10:13:56;;;;;;;21.38;18.45;;;22.50;46.20;;;;;;6057501;23;20018;-69
2022/12/21 10:16:48;;;;;;;20.83;16.83;;;22.50;46.20;;;;;;6057867;23;20355;-69
2022/12/21 10:19:40;;;;;;;17.95;15.45;;;22.50;45.90;;;;;;6081875;23;20018;-68
2022/12/21 10:22:17;;;;;;;17.73;15.18;;;22.50;46.00;;;;;;6040037;23;20174;-68
2022/12/21 10:24:57;;;;;;;17.70;14.95;;;22.50;45.80;;;;;;6082820;23;20022;-68
2022/12/21 10:27:39;;;;;;;17.42;13.65;;;22.50;45.70;;;;;;6083961;23;20097;-68
2022/12/21 10:30:11;;;;;;;16.92;13.27;;;22.50;45.60;;;;;;6079871;23;20006;-66
2022/12/21 10:32:39;;;;;;;15.05;12.23;;;22.50;45.50;;;;;;6082932;23;20033;-67
2022/12/21 10:35:43;;;;;;;21.52;19.27;;;22.50;45.40;;;;;;6080719;23;20054;-67
2022/12/21 10:38:15;;;;;;;41.95;37.75;;;22.50;45.50;;;;;;6052835;23;20329;-67
2022/12/21 10:40:43;;;;;;;40.00;35.78;;;22.50;46.20;;;;;;6057885;23;20018;-66
2022/12/21 10:43:11;;;;;;;40.30;36.10;;;22.50;46.20;;;;;;6080086;23;20105;-66
2022/12/21 10:45:37;;;;;;;38.65;34.85;;;22.50;46.20;;;;;;6084175;23;20025;-66
2022/12/21 10:48:03;;;;;;;36.60;32.90;;;22.40;46.10;;;;;;6084987;23;20010;-66
2022/12/21 10:50:32;;;;;;;34.50;31.10;;;22.50;46.00;;;;;;6084473;23;20416;-67
2022/12/21 10:53:15;;;;;;;33.95;30.38;;;22.50;45.90;;;;;;6085017;23;20042;-66
2022/12/21 10:55:43;;;;;;;48.78;44.05;;;22.50;45.90;;;;;;6060113;23;20036;-64
2022/12/21 10:58:26;;;;;;;49.10;44.17;;;22.30;46.50;;;;;;6086810;23;20014;-66
2022/12/21 11:01:15;;;;;;;44.03;39.72;;;22.20;47.00;;;;;;6062082;23;20081;-65
2022/12/21 11:03:41;;;;;;;41.65;37.28;;;22.20;47.00;;;;;;6085519;23;20057;-66
2022/12/21 11:06:16;;;;;;;37.40;33.88;;;22.30;46.80;;;;;;6060875;23;20471;-65
2022/12/21 11:08:52;;;;;;;35.88;32.42;;;22.30;46.50;;;;;;6085450;23;20058;-65
2022/12/21 11:11:31;;;;;;;34.00;30.70;;;22.40;46.30;;;;;;6084356;23;20175;-65
2022/12/21 11:14:15;;;;;;;31.05;27.95;;;22.40;46.00;;;;;;6057846;23;20014;-65
2022/12/21 11:16:41;;;;;;;29.90;26.88;;;22.50;46.00;;;;;;6061811;23;20049;-65
2022/12/21 11:19:13;;;;;;;28.02;25.23;;;22.50;45.80;;;;;;6084963;23;20023;-66
2022/12/21 11:21:54;;;;;;;27.50;24.70;;;22.50;45.60;;;;;;6083642;23;20065;-66
2022/12/21 11:24:28;;;;;;;;;;;22.50;45.50;;;;;;6084951;23;20049;-66
2022/12/21 11:27:01;;;;;;;23.73;21.35;;;22.50;45.30;;;;;;6081028;23;20624;-66
2022/12/21 11:29:31;;;;;;;22.77;20.50;;;22.50;45.50;;;;;;6084082;23;20014;-65
2022/12/21 11:32:06;;;;;;;21.65;19.42;;;22.50;45.20;;;;;;6080419;23;20101;-65
2022/12/21 11:34:40;;;;;;;20.83;18.67;;;22.60;45.20;;;;;;6081477;23;20057;-67
2022/12/21 11:37:31;;;;;;;20.40;18.40;;;22.60;45.00;;;;;;6081427;23;20024;-66
2022/12/21 11:40:06;;;;;;;20.00;17.95;;;22.60;44.80;;;;;;6083504;23;20695;-66
2022/12/21 11:42:32;;;;;;;18.15;16.15;;;22.60;44.90;;;;;;6058887;23;20133;-66
2022/12/21 11:45:18;;;;;;;18.75;16.05;;;22.60;44.90;;;;;;6079927;23;20442;-66
2022/12/21 11:48:02;;;;;;;16.13;14.43;;;22.60;44.80;;;;;;6057635;23;20113;-67
2022/12/21 11:50:53;;;;;;;16.73;15.13;;;22.60;44.70;;;;;;6083306;23;20018;-66
2022/12/21 11:53:50;;;;;;;16.15;13.45;;;22.60;44.50;;;;;;6083384;23;20022;-68
2022/12/21 11:56:34;;;;;;;17.38;15.57;;;22.60;44.50;;;;;;6056788;23;20022;-68
2022/12/21 11:59:11;;;;;;;19.02;17.00;;;22.60;44.50;;;;;;6082753;23;20374;-66
2022/12/21 12:01:54;;;;;;;20.00;18.00;;;22.60;44.70;;;;;;6081604;23;20015;-66
2022/12/21 12:04:46;;;;;;;21.55;19.35;;;22.60;44.60;;;;;;6081412;23;20017;-66
2022/12/21 12:07:54;;;;;;;25.10;22.50;;;22.60;44.80;;;;;;6062853;23;20018;-67
2022/12/21 12:10:23;;;;;;;26.85;24.25;;;22.60;44.70;;;;;;6041046;23;20018;-67
2022/12/21 12:13:07;;;;;;;30.30;27.25;;;22.60;44.80;;;;;;6056421;23;20050;-65
2022/12/21 12:16:12;;;;;;;31.75;28.40;;;22.60;44.80;;;;;;6056632;23;20030;-67
2022/12/21 12:18:52;;;;;;;34.22;30.75;;;22.60;44.80;;;;;;6081960;23;20023;-67
2022/12/21 12:21:32;;;;;;;33.55;30.08;;;22.70;44.90;;;;;;6083102;23;20423;-66
2022/12/21 12:24:13;;;;;;;34.67;31.02;;;22.70;44.90;;;;;;6082974;23;20125;-67
2022/12/21 12:26:57;;;;;;;33.92;30.52;;;22.70;44.80;;;;;;6081851;23;20022;-67
2022/12/21 12:29:42;;;;;;;35.47;31.95;;;22.70;44.80;;;;;;6058134;23;20122;-67
2022/12/21 12:32:27;;;;;;;34.95;31.27;;;22.70;44.80;;;;;;6082265;23;20030;-67
2022/12/21 12:35:22;;;;;;;39.63;35.55;;;22.70;44.80;;;;;;6084371;23;20026;-66
2022/12/21 12:37:58;;;;;;;38.10;34.20;;;22.70;44.80;;;;;;6057275;23;20092;-68
2022/12/21 12:40:44;;;;;;;37.97;34.30;;;22.70;44.80;;;;;;6058094;23;20137;-67
2022/12/21 12:43:25;;;;;;;39.58;35.75;;;22.70;44.80;;;;;;6082110;23;20025;-66
2022/12/21 12:46:11;;;;;;;40.00;35.80;;;22.70;44.80;;;;;;6081581;23;20515;-67
2022/12/21 12:48:39;;;;;;;40.80;36.72;;;22.70;45.50;;;;;;6081775;23;20351;-67
2022/12/21 12:51:30;;;;;;;40.88;36.80;;;22.80;44.90;;;;;;6056453;23;20018;-67
2022/12/21 12:54:24;;;;;;;39.33;35.42;;;22.70;44.70;;;;;;6055943;23;20034;-66
2022/12/21 12:57:05;;;;;;;38.33;34.63;;;22.70;44.70;;;;;;6057341;23;20065;-66
2022/12/21 13:00:03;;;;;;;36.55;33.00;;;22.70;44.70;;;;;;6083816;23;20074;-66
2022/12/21 13:02:48;;;;;;;37.22;33.58;;;22.70;44.50;;;;;;6061657;23;20116;-66
2022/12/21 13:05:28;;;;;;;34.40;30.75;;;22.70;44.60;;;;;;6083063;23;20485;-70
2022/12/21 13:08:03;;;;;;;32.42;29.10;;;22.70;44.70;;;;;;6080768;23;20101;-67
2022/12/21 13:10:56;;;;;;;29.38;26.58;;;22.70;44.50;;;;;;6086036;23;20402;-69
2022/12/21 13:13:33;;;;;;;28.75;25.88;;;22.70;44.40;;;;;;6084236;23;20025;-67
2022/12/21 13:16:14;;;;;;;47.45;42.95;;;22.80;44.40;;;;;;6061469;23;20018;-68
2022/12/21 13:18:47;;;;;;;50.63;45.25;;;22.70;45.80;;;;;;6061544;23;20049;-67
2022/12/21 13:21:16;;;;;;;52.55;47.10;;;22.70;47.10;;;;;;6060295;23;20690;-68
2022/12/21 13:23:48;;;;;;;49.78;45.03;;;22.60;46.80;;;;;;6059323;23;20015;-67
2022/12/21 13:26:28;;;;;;;46.47;41.83;;;22.70;47.40;;;;;;6060623;23;20521;-68